createdAt,value
2018-09-04T00:04:02.169Z,14.4
2018-09-04T00:09:04.683Z,14.4
2018-09-04T00:14:07.074Z,14.5
2018-09-04T00:19:09.510Z,14.5
2018-09-04T00:24:12.015Z,14.5
2018-09-04T00:29:14.626Z,14.4
2018-09-04T00:34:16.935Z,14.3
2018-09-04T00:39:19.395Z,14.4
2018-09-04T00:44:21.805Z,14.3
2018-09-04T00:49:24.263Z,14.3
2018-09-04T00:54:26.782Z,14.3
2018-09-04T00:59:29.181Z,14.3
2018-09-04T01:04:31.641Z,14.3
2018-09-04T01:14:36.671Z,14.4
2018-09-04T01:19:39.186Z,14.5
2018-09-04T01:24:41.476Z,14.5
2018-09-04T01:29:43.968Z,14.6
2018-09-04T01:34:46.389Z,14.7
2018-09-04T01:39:48.829Z,14.7
2018-09-04T01:44:51.492Z,14.7
2018-09-04T01:49:53.762Z,14.8
2018-09-04T01:54:56.224Z,14.7
2018-09-04T01:59:58.711Z,14.8
2018-09-04T02:05:01.144Z,14.8
2018-09-04T02:10:03.602Z,14.8
2018-09-04T02:15:06.964Z,14.8
2018-09-04T02:20:08.546Z,14.8
2018-09-04T02:25:10.960Z,14.7
2018-09-04T02:30:13.615Z,14.6
2018-09-04T02:35:15.865Z,14.5
2018-09-04T02:40:18.330Z,14.6
2018-09-04T02:45:20.791Z,14.6
2018-09-04T02:50:24.366Z,14.6
2018-09-04T02:55:25.702Z,14.5
2018-09-04T03:00:28.170Z,14.4
2018-09-04T03:05:30.613Z,14.3
2018-09-04T03:10:33.346Z,14.3
2018-09-04T03:15:35.538Z,14.2
2018-09-04T03:20:38.358Z,14.2
2018-09-04T03:25:40.493Z,14.2
2018-09-04T03:30:42.932Z,14.3
2018-09-04T03:35:45.374Z,14.4
2018-09-04T03:40:47.821Z,14.4
2018-09-04T03:45:50.313Z,14.5
2018-09-04T03:50:52.806Z,14.6
2018-09-04T03:55:55.211Z,14.7
2018-09-04T04:00:57.725Z,14.7
2018-09-04T04:06:00.174Z,14.8
2018-09-04T04:11:07.594Z,14.8
2018-09-04T04:16:05.169Z,14.8
2018-09-04T04:21:07.529Z,14.8
2018-09-04T04:26:09.970Z,14.8
2018-09-04T04:31:12.482Z,14.6
2018-09-04T04:36:14.866Z,14.7
2018-09-04T04:41:17.313Z,14.7
2018-09-04T04:46:20.108Z,14.7
2018-09-04T04:51:22.278Z,14.7
2018-09-04T04:56:24.706Z,14.8
2018-09-04T05:01:27.166Z,15
2018-09-04T05:06:29.614Z,15
2018-09-04T05:11:32.170Z,15
2018-09-04T05:16:34.637Z,15.2
2018-09-04T05:21:37.038Z,15.2
2018-09-04T05:26:39.621Z,15.3
2018-09-04T05:31:41.902Z,15.5
2018-09-04T05:36:44.756Z,15.5
2018-09-04T05:41:46.840Z,15.7
2018-09-04T05:46:49.305Z,15.8
2018-09-04T05:51:51.743Z,15.8
2018-09-04T05:56:54.276Z,16
2018-09-04T06:01:56.683Z,16.1
2018-09-04T06:06:59.109Z,16.2
2018-09-04T06:12:01.581Z,16.4
2018-09-04T06:17:04.032Z,16.5
2018-09-04T06:22:06.514Z,16.6
2018-09-04T06:27:08.946Z,16.9
2018-09-04T06:32:11.419Z,17.2
2018-09-04T06:37:13.865Z,17.4
2018-09-04T06:42:16.321Z,17.7
2018-09-04T06:47:18.799Z,18
2018-09-04T06:52:21.493Z,18.1
2018-09-04T06:57:23.699Z,18.2
2018-09-04T07:02:26.151Z,18.3
2018-09-04T07:07:28.641Z,18.2
2018-09-04T07:12:31.061Z,18.4
2018-09-04T07:17:33.546Z,18.8
2018-09-04T07:22:36.054Z,19.1
2018-09-04T07:27:38.538Z,19.5
2018-09-04T07:32:40.911Z,19.9
2018-09-04T07:37:43.416Z,20
2018-09-04T07:42:45.912Z,20.1
2018-09-04T07:47:48.296Z,20.2
2018-09-04T07:52:50.786Z,20.1
2018-09-04T07:57:53.196Z,20.2
2018-09-04T08:02:55.658Z,20.6
2018-09-04T08:07:58.126Z,21.2
2018-09-04T08:13:00.583Z,22
2018-09-04T08:18:03.053Z,23.2
2018-09-04T08:23:05.748Z,23.9
2018-09-04T08:28:08.002Z,24
2018-09-04T08:33:10.555Z,25.7
2018-09-04T08:38:12.865Z,27.2
2018-09-04T08:43:15.371Z,28.1
2018-09-04T08:48:18.008Z,27.9
2018-09-04T08:53:20.295Z,29.4
2018-09-04T08:58:22.723Z,30
2018-09-04T09:03:25.169Z,28.4
2018-09-04T09:08:27.640Z,26.5
2018-09-04T09:13:30.307Z,25.4
2018-09-04T09:18:32.555Z,24.5
2018-09-04T09:23:35.019Z,23.9
2018-09-04T09:28:37.506Z,23.3
2018-09-04T09:33:40.031Z,22.9
2018-09-04T09:38:42.382Z,22.7
2018-09-04T09:43:45.390Z,22.3
2018-09-04T09:48:47.293Z,22.5
2018-09-04T09:53:49.841Z,22.7
2018-09-04T09:58:52.300Z,22.5
2018-09-04T10:03:54.724Z,22.2
2018-09-04T10:08:57.127Z,22.2
2018-09-04T10:13:59.841Z,22.5
2018-09-04T10:19:02.061Z,22.5
2018-09-04T10:24:04.524Z,22.6
2018-09-04T10:29:07.302Z,22.8
2018-09-04T10:34:09.513Z,22.9
2018-09-04T10:39:11.944Z,23
2018-09-04T10:44:14.365Z,23
2018-09-04T10:49:16.803Z,22.8
2018-09-04T10:54:19.250Z,22.6
2018-09-04T10:59:21.724Z,22.8
2018-09-04T11:04:24.231Z,23.2
2018-09-04T11:09:26.709Z,23.6
2018-09-04T11:14:29.100Z,23.7
2018-09-04T11:19:31.591Z,23.4
2018-09-04T11:24:34.012Z,23.6
2018-09-04T11:29:36.605Z,24
2018-09-04T11:34:39.485Z,24.3
2018-09-04T11:39:41.411Z,24.5
2018-09-04T11:44:43.968Z,24.8
2018-09-04T11:49:46.371Z,25.2
2018-09-04T11:54:48.931Z,25.5
2018-09-04T11:59:51.338Z,25.3
2018-09-04T12:04:54.110Z,25.2
2018-09-04T12:09:56.188Z,25.4
2018-09-04T12:14:58.620Z,25.2
2018-09-04T12:20:01.173Z,24.7
2018-09-04T12:25:03.562Z,24.3
2018-09-04T12:30:06.312Z,23.9
2018-09-04T12:35:08.632Z,23.8
2018-09-04T12:40:10.905Z,24.1
2018-09-04T12:45:13.379Z,24.7
2018-09-04T12:50:15.823Z,25.1
2018-09-04T12:55:18.280Z,24.9
2018-09-04T13:00:20.748Z,23.9
2018-09-04T13:05:23.518Z,23.5
2018-09-04T13:10:25.829Z,23.8
2018-09-04T13:15:30.296Z,23.9
2018-09-04T13:20:30.575Z,24.1
2018-09-04T13:30:35.486Z,25
2018-09-04T13:35:38.037Z,25.4
2018-09-04T13:40:40.430Z,24.7
2018-09-04T13:45:42.852Z,24.2
2018-09-04T13:50:45.502Z,23.9
2018-09-04T13:55:47.784Z,23.7
2018-09-04T14:00:50.260Z,23.9
2018-09-04T14:05:52.703Z,24.2
2018-09-04T14:15:57.766Z,24
2018-09-04T14:21:00.170Z,23.9
2018-09-04T14:26:02.547Z,24
2018-09-04T14:31:05.352Z,24
2018-09-04T14:36:07.733Z,24
2018-09-04T14:41:09.927Z,24.1
2018-09-04T14:46:12.371Z,24.3
2018-09-04T14:51:14.838Z,24.3
2018-09-04T14:56:17.307Z,24.2
2018-09-04T15:01:19.758Z,24.3
2018-09-04T15:06:22.309Z,24.5
2018-09-04T15:11:24.664Z,24.7
2018-09-04T15:16:27.124Z,24.6
2018-09-04T15:21:29.609Z,24.5
2018-09-04T15:26:32.048Z,24.3
2018-09-04T15:31:34.591Z,24.3
2018-09-04T15:36:36.956Z,24.3
2018-09-04T15:41:39.442Z,24.1
2018-09-04T15:46:41.879Z,24
2018-09-04T15:51:44.427Z,23.8
2018-09-04T15:56:46.834Z,23.7
2018-09-04T16:01:49.252Z,23.5
2018-09-04T16:06:51.715Z,23.2
2018-09-04T16:11:54.212Z,23.1
2018-09-04T16:16:56.713Z,23.1
2018-09-04T16:21:59.082Z,23.1
2018-09-04T16:27:01.551Z,23
2018-09-04T16:32:04.042Z,22.8
2018-09-04T16:37:06.767Z,22.6
2018-09-04T16:42:09.005Z,22.6
2018-09-04T16:47:11.388Z,22.4
2018-09-04T16:52:13.869Z,22.2
2018-09-04T16:57:16.303Z,22.1
2018-09-04T17:02:18.777Z,21.8
2018-09-04T17:12:23.799Z,21.4
2018-09-04T17:17:26.209Z,21.4
2018-09-04T17:22:28.587Z,21.2
2018-09-04T17:27:31.083Z,21.1
2018-09-04T17:32:33.525Z,21
2018-09-04T17:37:36.065Z,20.8
2018-09-04T17:42:38.427Z,20.5
2018-09-04T17:47:40.960Z,20.3
2018-09-04T17:52:43.343Z,20
2018-09-04T17:57:45.814Z,19.6
2018-09-04T18:02:48.263Z,19.3
2018-09-04T18:07:50.727Z,19
2018-09-04T18:12:53.191Z,18.8
2018-09-04T18:17:55.652Z,18.6
2018-09-04T18:22:58.099Z,18.4
2018-09-04T18:28:00.544Z,18.1
2018-09-04T18:33:03.070Z,17.9
2018-09-04T18:43:07.922Z,17.5
2018-09-04T18:48:10.381Z,17.3
2018-09-04T18:53:13.036Z,17.2
2018-09-04T18:58:15.303Z,16.9
2018-09-04T19:03:17.763Z,16.8
2018-09-04T19:08:20.360Z,16.6
2018-09-04T19:18:25.131Z,16.4
2018-09-04T19:23:27.729Z,16.4
2018-09-04T19:28:30.064Z,16.3
2018-09-04T19:33:32.531Z,16.2
2018-09-04T19:38:35.118Z,16.2
2018-09-04T19:43:37.451Z,16.1
2018-09-04T19:48:39.887Z,16.1
2018-09-04T19:53:42.378Z,16
2018-09-04T19:58:44.818Z,15.9
2018-09-04T20:03:47.260Z,15.8
2018-09-04T20:08:49.755Z,15.7
2018-09-04T20:13:52.608Z,15.6
2018-09-04T20:18:54.852Z,15.5
2018-09-04T20:23:57.416Z,15.4
2018-09-04T20:28:59.678Z,15.3
2018-09-04T20:34:02.011Z,15.3
2018-09-04T20:39:04.541Z,15.2
2018-09-04T20:44:07.148Z,15.1
2018-09-04T20:49:09.718Z,14.9
2018-09-04T20:54:11.857Z,14.9
2018-09-04T20:59:14.303Z,14.9
2018-09-04T21:04:16.767Z,14.9
2018-09-04T21:09:19.240Z,14.8
2018-09-04T21:14:21.671Z,14.7
2018-09-04T21:19:24.154Z,14.7
2018-09-04T21:24:26.615Z,14.6
2018-09-04T21:29:29.208Z,14.6
2018-09-04T21:34:31.563Z,14.5
2018-09-04T21:39:33.981Z,14.5
2018-09-04T21:44:36.414Z,14.4
2018-09-04T21:49:38.883Z,14.4
2018-09-04T21:54:41.465Z,14.3
2018-09-04T21:59:43.788Z,14.2
2018-09-04T22:04:46.345Z,14.2
2018-09-04T22:09:48.711Z,14.1
2018-09-04T22:14:51.221Z,14.1
2018-09-04T22:19:53.640Z,14
2018-09-04T22:24:56.088Z,13.9
2018-09-04T22:29:58.545Z,13.8
2018-09-04T22:35:01.012Z,13.8
2018-09-04T22:40:03.476Z,13.8
2018-09-04T22:45:05.974Z,13.7
2018-09-04T22:50:09.181Z,13.7
2018-09-04T22:55:10.838Z,13.6
2018-09-04T23:00:13.298Z,13.6
2018-09-04T23:05:15.748Z,13.4
2018-09-04T23:10:18.214Z,13.3
2018-09-04T23:15:20.734Z,13.4
2018-09-04T23:20:23.200Z,13.4
2018-09-04T23:25:25.685Z,13.2
2018-09-04T23:30:28.118Z,13.2
2018-09-04T23:35:30.521Z,13.2
2018-09-04T23:40:32.950Z,13.1
2018-09-04T23:45:35.514Z,13.1
2018-09-04T23:50:37.904Z,13
2018-09-04T23:55:40.542Z,13
